createdAt,value
2023-03-13T00:03:36.015Z,12.20
2023-03-13T00:07:37.329Z,12.20
2023-03-13T00:11:38.639Z,12.30
2023-03-13T00:15:39.799Z,12.30
2023-03-13T00:19:40.949Z,12.30
2023-03-13T00:23:42.198Z,12.30
2023-03-13T00:27:43.364Z,12.30
2023-03-13T00:31:44.623Z,12.30
2023-03-13T00:35:45.956Z,12.30
2023-03-13T00:39:47.091Z,12.30
2023-03-13T00:43:49.781Z,12.40
2023-03-13T00:47:50.910Z,12.30
2023-03-13T00:51:52.074Z,12.40
2023-03-13T00:56:02.674Z,12.30
2023-03-13T01:00:05.890Z,12.30
2023-03-13T01:04:10.277Z,12.30
2023-03-13T01:08:11.457Z,12.40
2023-03-13T01:12:12.623Z,12.40
2023-03-13T01:16:16.342Z,12.40
2023-03-13T01:20:17.835Z,12.30
2023-03-13T01:24:19.491Z,12.50
2023-03-13T01:28:21.449Z,12.40
2023-03-13T01:32:22.750Z,12.50
2023-03-13T01:36:24.734Z,12.50
2023-03-13T01:40:26.043Z,12.60
2023-03-13T01:44:27.222Z,12.70
2023-03-13T01:48:47.580Z,12.70
2023-03-13T01:52:48.766Z,12.70
2023-03-13T01:56:59.500Z,12.80
2023-03-13T02:01:01.079Z,12.90
2023-03-13T02:05:05.397Z,12.90
2023-03-13T02:09:10.367Z,12.90
2023-03-13T02:13:14.542Z,12.90
2023-03-13T02:17:15.850Z,12.90
2023-03-13T02:21:26.533Z,12.90
2023-03-13T02:25:42.813Z,12.90
2023-03-13T02:29:44.191Z,12.90
2023-03-13T02:33:45.454Z,12.90
2023-03-13T02:37:50.185Z,12.90
2023-03-13T02:41:52.756Z,12.80
2023-03-13T02:46:16.600Z,12.80
2023-03-13T02:50:18.945Z,12.80
2023-03-13T02:54:29.837Z,12.70
2023-03-13T02:58:49.859Z,12.60
2023-03-13T03:02:46.868Z,12.60
2023-03-13T03:06:48.526Z,12.50
2023-03-13T03:10:49.713Z,12.50
2023-03-13T03:14:50.966Z,12.50
2023-03-13T03:18:52.140Z,12.50
2023-03-13T03:22:53.291Z,12.30
2023-03-13T03:26:54.469Z,12.40
2023-03-13T03:30:55.846Z,12.30
2023-03-13T03:34:56.898Z,12.30
2023-03-13T03:38:58.471Z,12.40
2023-03-13T03:42:59.651Z,12.40
2023-03-13T03:47:00.893Z,12.40
2023-03-13T03:51:02.025Z,12.20
2023-03-13T03:55:03.834Z,12.30
2023-03-13T03:59:04.993Z,12.30
2023-03-13T04:03:06.235Z,12.30
2023-03-13T04:07:07.319Z,12.10
2023-03-13T04:11:08.521Z,12.10
2023-03-13T04:15:10.581Z,12.00
2023-03-13T04:19:14.851Z,11.90
2023-03-13T04:23:16.230Z,11.90
2023-03-13T04:27:18.000Z,11.90
2023-03-13T04:31:19.610Z,11.80
2023-03-13T04:35:20.979Z,11.70
2023-03-13T04:39:24.739Z,11.70
2023-03-13T04:43:27.271Z,11.70
2023-03-13T04:47:28.442Z,11.80
2023-03-13T04:51:29.702Z,11.80
2023-03-13T04:55:31.025Z,11.70
2023-03-13T04:59:32.794Z,11.80
2023-03-13T05:03:33.964Z,11.80
2023-03-13T05:07:35.117Z,11.80
2023-03-13T05:11:36.373Z,11.80
2023-03-13T05:15:37.560Z,11.90
2023-03-13T05:19:38.697Z,11.90
2023-03-13T05:23:39.837Z,12.00
2023-03-13T05:27:41.278Z,12.00
2023-03-13T05:31:42.546Z,12.10
2023-03-13T05:35:43.686Z,11.90
2023-03-13T05:39:44.856Z,12.00
2023-03-13T05:43:46.041Z,12.00
2023-03-13T05:47:47.489Z,12.00
2023-03-13T05:51:49.422Z,12.10
2023-03-13T05:55:50.555Z,12.20
2023-03-13T05:59:51.725Z,12.20
2023-03-13T06:03:53.056Z,12.40
2023-03-13T06:07:54.366Z,12.40
2023-03-13T06:11:55.515Z,12.50
2023-03-13T06:15:57.615Z,12.50
2023-03-13T06:19:58.742Z,12.50
2023-03-13T06:23:59.890Z,12.50
2023-03-13T06:28:01.081Z,12.40
2023-03-13T06:32:02.443Z,12.50
2023-03-13T06:36:04.211Z,12.50
2023-03-13T06:40:06.440Z,12.60
2023-03-13T06:44:07.614Z,12.60
2023-03-13T06:48:08.770Z,12.70
2023-03-13T06:52:09.950Z,12.80
2023-03-13T06:56:11.422Z,12.90
2023-03-13T07:00:13.707Z,12.90
2023-03-13T07:04:15.636Z,12.90
2023-03-13T07:08:16.738Z,12.80
2023-03-13T07:12:17.891Z,13.00
2023-03-13T07:16:19.117Z,13.00
2023-03-13T07:20:20.323Z,13.10
2023-03-13T07:24:21.606Z,13.00
2023-03-13T07:28:23.287Z,13.20
2023-03-13T07:32:24.516Z,13.20
2023-03-13T07:36:25.782Z,13.20
2023-03-13T07:40:27.017Z,13.30
2023-03-13T07:44:28.235Z,13.30
2023-03-13T07:48:32.811Z,13.30
2023-03-13T07:52:33.948Z,13.40
2023-03-13T07:56:34.998Z,13.50
2023-03-13T08:00:36.143Z,13.50
2023-03-13T08:04:37.324Z,13.40
2023-03-13T08:08:39.154Z,13.40
2023-03-13T08:12:40.314Z,13.50
2023-03-13T08:16:41.606Z,13.50
2023-03-13T08:20:44.657Z,13.50
2023-03-13T08:24:45.703Z,13.60
2023-03-13T08:28:49.546Z,13.70
2023-03-13T08:32:50.882Z,13.80
2023-03-13T08:36:52.139Z,14.00
2023-03-13T08:40:57.230Z,14.00
2023-03-13T08:44:58.410Z,14.20
2023-03-13T08:48:59.682Z,14.30
2023-03-13T08:53:02.033Z,14.40
2023-03-13T08:57:03.365Z,14.50
2023-03-13T09:01:07.756Z,14.60
2023-03-13T09:05:09.244Z,14.60
2023-03-13T09:09:11.395Z,14.70
2023-03-13T09:13:12.549Z,14.70
2023-03-13T09:17:13.703Z,14.70
2023-03-13T09:21:18.384Z,14.70
2023-03-13T09:25:19.617Z,14.70
2023-03-13T09:29:21.677Z,14.80
2023-03-13T09:33:25.623Z,14.80
2023-03-13T09:37:26.765Z,15.00
2023-03-13T09:41:37.802Z,15.00
2023-03-13T09:45:42.988Z,15.20
2023-03-13T09:49:51.378Z,15.40
2023-03-13T09:54:04.986Z,15.60
2023-03-13T09:58:25.112Z,15.80
2023-03-13T10:02:33.072Z,15.60
2023-03-13T10:06:40.603Z,15.50
2023-03-13T10:10:48.570Z,15.50
2023-03-13T10:14:59.085Z,15.50
2023-03-13T10:19:04.021Z,15.80
2023-03-13T10:23:18.146Z,16.00
2023-03-13T10:27:19.291Z,16.20
2023-03-13T10:31:32.405Z,16.20
2023-03-13T10:35:40.154Z,16.00
2023-03-13T10:39:41.245Z,16.10
2023-03-13T10:43:51.665Z,16.10
2023-03-13T10:47:58.724Z,16.10
2023-03-13T10:52:03.104Z,16.10
2023-03-13T10:56:12.771Z,16.10
2023-03-13T11:00:27.017Z,16.20
2023-03-13T11:04:31.993Z,16.30
2023-03-13T11:08:35.483Z,16.50
2023-03-13T11:12:40.565Z,16.70
2023-03-13T11:16:48.764Z,16.70
2023-03-13T11:20:50.725Z,16.60
2023-03-13T11:25:10.713Z,16.60
2023-03-13T11:29:24.994Z,16.60
2023-03-13T11:33:35.823Z,16.50
2023-03-13T11:37:39.271Z,16.60
2023-03-13T11:41:44.293Z,16.70
2023-03-13T11:46:10.824Z,16.80
2023-03-13T11:50:25.201Z,16.80
2023-03-13T11:54:39.440Z,17.00
2023-03-13T11:58:50.650Z,17.10
2023-03-13T12:02:58.211Z,17.20
2023-03-13T12:07:04.826Z,17.30
2023-03-13T12:11:21.713Z,17.20
2023-03-13T12:15:38.828Z,17.30
2023-03-13T12:20:06.550Z,17.30
2023-03-13T12:24:29.785Z,17.50
2023-03-13T12:28:58.286Z,17.50
2023-03-13T12:33:03.308Z,17.60
2023-03-13T12:37:14.239Z,17.60
2023-03-13T12:41:25.327Z,17.90
2023-03-13T12:45:28.707Z,18.30
2023-03-13T12:49:57.549Z,18.40
2023-03-13T12:54:19.468Z,18.30
2023-03-13T12:58:34.105Z,19.00
2023-03-13T13:02:35.254Z,19.00
2023-03-13T13:06:55.313Z,18.70
2023-03-13T13:11:17.067Z,18.80
2023-03-13T13:15:21.924Z,18.60
2023-03-13T13:19:26.986Z,18.60
2023-03-13T13:23:36.131Z,18.70
2023-03-13T13:27:41.119Z,19.00
2023-03-13T13:31:54.142Z,19.00
2023-03-13T13:36:22.287Z,19.30
2023-03-13T13:40:31.234Z,19.40
2023-03-13T13:44:32.380Z,19.60
2023-03-13T13:48:38.738Z,19.90
2023-03-13T13:52:40.855Z,19.80
2023-03-13T13:56:47.489Z,20.10
2023-03-13T14:01:00.759Z,20.20
2023-03-13T14:05:08.102Z,20.00
2023-03-13T14:09:21.699Z,19.80
2023-03-13T14:13:24.168Z,19.90
2023-03-13T14:17:25.334Z,20.10
2023-03-13T14:21:26.606Z,20.10
2023-03-13T14:25:30.570Z,20.00
2023-03-13T14:29:31.874Z,19.70
2023-03-13T14:33:33.868Z,19.70
2023-03-13T14:37:44.713Z,19.70
2023-03-13T14:41:48.016Z,19.60
2023-03-13T14:45:50.295Z,19.50
2023-03-13T14:49:59.793Z,19.60
2023-03-13T14:54:02.170Z,19.80
2023-03-13T14:58:06.840Z,20.10
2023-03-13T15:02:30.204Z,20.20
2023-03-13T15:06:31.353Z,20.00
2023-03-13T15:10:39.858Z,19.80
2023-03-13T15:14:43.943Z,19.60
2023-03-13T15:18:46.471Z,19.40
2023-03-13T15:22:47.646Z,19.20
2023-03-13T15:26:49.395Z,19.10
2023-03-13T15:30:51.794Z,19.10
2023-03-13T15:34:53.128Z,19.10
2023-03-13T15:38:54.605Z,19.10
2023-03-13T15:42:55.902Z,19.10
2023-03-13T15:46:57.400Z,18.30
2023-03-13T15:51:01.882Z,17.10
2023-03-13T15:55:03.989Z,16.40
2023-03-13T15:59:11.073Z,15.90
2023-03-13T16:03:18.780Z,15.60
2023-03-13T16:07:21.153Z,15.20
2023-03-13T16:11:23.933Z,15.20
2023-03-13T16:15:25.357Z,15.10
2023-03-13T16:19:26.631Z,15.00
2023-03-13T16:23:28.010Z,14.90
2023-03-13T16:27:29.392Z,15.00
2023-03-13T16:31:32.498Z,14.90
2023-03-13T16:35:33.970Z,14.90
2023-03-13T16:39:35.210Z,14.90
2023-03-13T16:43:36.549Z,14.80
2023-03-13T16:47:38.031Z,14.90
2023-03-13T16:51:39.676Z,14.90
2023-03-13T16:55:40.960Z,14.80
2023-03-13T16:59:42.263Z,14.80
2023-03-13T17:03:44.282Z,14.70
2023-03-13T17:07:48.058Z,14.60
2023-03-13T17:11:49.329Z,14.40
2023-03-13T17:15:50.694Z,14.30
2023-03-13T17:19:52.013Z,14.30
2023-03-13T17:23:53.294Z,14.30
2023-03-13T17:27:54.799Z,14.30
2023-03-13T17:31:56.054Z,14.30
2023-03-13T17:35:57.351Z,14.40
2023-03-13T17:39:58.565Z,14.50
2023-03-13T17:43:59.925Z,14.60
2023-03-13T17:48:01.136Z,14.60
2023-03-13T17:52:02.518Z,14.60
2023-03-13T17:56:12.443Z,14.80
2023-03-13T18:00:20.549Z,14.60
2023-03-13T18:04:21.688Z,14.60
2023-03-13T18:08:22.871Z,14.70
2023-03-13T18:12:24.147Z,14.60
2023-03-13T18:16:33.081Z,14.40
2023-03-13T18:20:34.336Z,14.50
2023-03-13T18:24:35.738Z,14.60
2023-03-13T18:28:37.003Z,14.50
2023-03-13T18:32:38.376Z,14.70
2023-03-13T18:36:39.763Z,14.50
2023-03-13T18:40:41.010Z,14.60
2023-03-13T18:44:42.146Z,14.70
2023-03-13T18:48:43.289Z,14.70
2023-03-13T18:52:44.346Z,14.60
2023-03-13T18:56:46.726Z,14.70
2023-03-13T19:00:47.887Z,14.70
2023-03-13T19:04:49.040Z,14.60
2023-03-13T19:08:53.006Z,14.70
2023-03-13T19:12:55.468Z,14.70
2023-03-13T19:16:57.482Z,14.60
2023-03-13T19:20:58.765Z,14.50
2023-03-13T19:25:00.820Z,14.40
2023-03-13T19:29:02.682Z,14.50
2023-03-13T19:33:03.945Z,14.40
2023-03-13T19:37:05.240Z,14.40
2023-03-13T19:41:08.670Z,14.30
2023-03-13T19:45:10.925Z,14.30
2023-03-13T19:49:18.023Z,14.30
2023-03-13T19:53:19.320Z,14.30
2023-03-13T19:57:20.804Z,14.30
2023-03-13T20:01:22.207Z,14.20
2023-03-13T20:05:26.614Z,14.10
2023-03-13T20:09:27.989Z,14.00
2023-03-13T20:13:29.804Z,14.00
2023-03-13T20:17:31.109Z,13.70
2023-03-13T20:21:34.725Z,13.30
2023-03-13T20:25:36.044Z,13.30
2023-03-13T20:29:37.433Z,13.20
2023-03-13T20:33:39.806Z,13.30
2023-03-13T20:37:41.450Z,13.30
2023-03-13T20:41:42.751Z,13.30
2023-03-13T20:45:44.821Z,13.40
2023-03-13T20:49:46.391Z,13.30
2023-03-13T20:53:47.788Z,13.20
2023-03-13T20:57:49.193Z,13.30
2023-03-13T21:01:50.545Z,13.30
2023-03-13T21:05:51.990Z,13.40
2023-03-13T21:09:53.245Z,13.50
2023-03-13T21:13:54.638Z,13.50
2023-03-13T21:17:56.044Z,13.40
2023-03-13T21:21:57.227Z,13.30
2023-03-13T21:25:59.747Z,13.30
2023-03-13T21:30:01.802Z,13.20
2023-03-13T21:34:03.218Z,13.20
2023-03-13T21:38:04.419Z,13.10
2023-03-13T21:42:05.895Z,13.10
2023-03-13T21:46:09.462Z,13.10
2023-03-13T21:50:11.614Z,13.10
2023-03-13T21:54:12.770Z,13.10
2023-03-13T21:58:13.961Z,13.00
2023-03-13T22:02:15.157Z,13.00
2023-03-13T22:06:18.951Z,12.80
2023-03-13T22:10:20.153Z,12.70
2023-03-13T22:14:21.402Z,12.80
2023-03-13T22:18:22.836Z,12.70
2023-03-13T22:22:24.982Z,12.60
2023-03-13T22:26:26.145Z,12.80
2023-03-13T22:30:27.326Z,12.70
2023-03-13T22:34:28.590Z,12.70
2023-03-13T22:38:30.045Z,12.60
2023-03-13T22:42:31.193Z,12.60
2023-03-13T22:46:32.367Z,12.50
2023-03-13T22:50:34.322Z,12.50
2023-03-13T22:54:35.482Z,12.50
2023-03-13T22:58:37.747Z,12.50
2023-03-13T23:02:38.811Z,12.30
2023-03-13T23:06:40.669Z,12.40
2023-03-13T23:10:43.333Z,12.40
2023-03-13T23:14:44.483Z,12.50
2023-03-13T23:18:46.144Z,12.60
2023-03-13T23:22:49.288Z,12.50
2023-03-13T23:26:50.453Z,12.60
2023-03-13T23:30:51.678Z,12.30
2023-03-13T23:34:52.848Z,12.30
2023-03-13T23:38:54.415Z,12.30
2023-03-13T23:42:55.679Z,12.30
2023-03-13T23:46:56.935Z,12.30
2023-03-13T23:50:58.086Z,12.40
2023-03-13T23:54:59.751Z,12.40
2023-03-13T23:59:00.906Z,12.30
